VTK503 UHPP-PADU
Flight info
| Callsign | VTK503 |
|---|---|
| Flight time | 3h 25m |
| Altitude | 25000 |
| Route | PIRUT4M PIRUT G73 RAPAK B932 DIPNA B242 KOKES/N0453F370 DCT 55N178E 55N174W DCT ALEUT |
| Aircraft | A319/M-SDE3FGHIRWY/LB1 |
Departure
| Time | 2026-05-05 00:59 |
|---|---|
| Airport | Yelizovo Airport (UHPP) |
Arrival
| Time | 2026-05-05 04:25 |
|---|---|
| Airport | Tom Madsen (Dutch Harbor) Airport (PADU) |
| Time | Latitude | Longitude | Altitude | Speed | Heading |
|---|---|---|---|---|---|
| 2026-05-05 00:41 | 53.16845 | 158.42978 | 137 ft | 0 kts | 240° |
| 2026-05-05 00:55 | 53.16844 | 158.42973 | 165 ft | 1 kts | 240° |
| 2026-05-05 00:55 | 53.16837 | 158.42951 | 137 ft | 4 kts | 245° |
| 2026-05-05 00:55 | 53.16846 | 158.42880 | 137 ft | 9 kts | 310° |
| 2026-05-05 00:55 | 53.16911 | 158.42810 | 137 ft | 13 kts | 331° |
| 2026-05-05 00:56 | 53.17011 | 158.42783 | 137 ft | 17 kts | 32° |
| 2026-05-05 00:56 | 53.17086 | 158.42969 | 137 ft | 22 kts | 59° |
| 2026-05-05 00:56 | 53.17169 | 158.43209 | 137 ft | 26 kts | 59° |
| 2026-05-05 00:56 | 53.17262 | 158.43472 | 137 ft | 26 kts | 60° |
| 2026-05-05 00:57 | 53.17352 | 158.43736 | 137 ft | 26 kts | 60° |
| 2026-05-05 00:57 | 53.17443 | 158.43999 | 137 ft | 26 kts | 60° |
| 2026-05-05 00:57 | 53.17515 | 158.44265 | 137 ft | 25 kts | 67° |
| 2026-05-05 00:57 | 53.17580 | 158.44519 | 138 ft | 23 kts | 67° |
| 2026-05-05 00:58 | 53.17564 | 158.44628 | 138 ft | 0 kts | 151° |
| 2026-05-05 00:58 | 53.17545 | 158.44643 | 138 ft | 7 kts | 157° |
| 2026-05-05 00:58 | 53.17473 | 158.44692 | 139 ft | 15 kts | 158° |
| 2026-05-05 00:58 | 53.17308 | 158.44803 | 138 ft | 53 kts | 158° |
| 2026-05-05 00:59 | 53.16746 | 158.45197 | 138 ft | 119 kts | 157° |
| 2026-05-05 00:59 | 53.15821 | 158.45845 | 230 ft | 161 kts | 156° |
| 2026-05-05 00:59 | 53.14809 | 158.46567 | 942 ft | 157 kts | 153° |
| 2026-05-05 00:59 | 53.13797 | 158.47281 | 1640 ft | 163 kts | 149° |
| 2026-05-05 01:00 | 53.12682 | 158.48073 | 2058 ft | 187 kts | 148° |
| 2026-05-05 01:00 | 53.11404 | 158.48985 | 2527 ft | 212 kts | 149° |
| 2026-05-05 01:00 | 53.09981 | 158.49984 | 3217 ft | 227 kts | 150° |
| 2026-05-05 01:00 | 53.08506 | 158.50993 | 4224 ft | 231 kts | 151° |
| 2026-05-05 01:01 | 53.06998 | 158.52014 | 5277 ft | 232 kts | 151° |
| 2026-05-05 01:01 | 53.05494 | 158.53033 | 6311 ft | 234 kts | 151° |
| 2026-05-05 01:01 | 53.03988 | 158.54058 | 7303 ft | 234 kts | 152° |
| 2026-05-05 01:01 | 53.02480 | 158.55085 | 8332 ft | 234 kts | 153° |
| 2026-05-05 01:02 | 53.00971 | 158.56112 | 9385 ft | 235 kts | 154° |
| 2026-05-05 01:02 | 52.99428 | 158.57162 | 10016 ft | 249 kts | 155° |
| 2026-05-05 01:02 | 52.97751 | 158.58302 | 10230 ft | 272 kts | 155° |
| 2026-05-05 01:02 | 52.95929 | 158.59548 | 10539 ft | 292 kts | 155° |
| 2026-05-05 01:03 | 52.94161 | 158.61255 | 11138 ft | 299 kts | 139° |
| 2026-05-05 01:03 | 52.92897 | 158.64032 | 11858 ft | 309 kts | 120° |
| 2026-05-05 01:03 | 52.92378 | 158.67566 | 12587 ft | 328 kts | 99° |
| 2026-05-05 01:03 | 52.92810 | 158.71405 | 13296 ft | 354 kts | 78° |
| 2026-05-05 01:04 | 52.93786 | 158.75197 | 13925 ft | 361 kts | 75° |
| 2026-05-05 01:04 | 52.95865 | 158.82901 | 15132 ft | 371 kts | 74° |
| 2026-05-05 01:04 | 52.96923 | 158.86822 | 15720 ft | 375 kts | 74° |
| 2026-05-05 01:05 | 52.97987 | 158.90805 | 16305 ft | 379 kts | 74° |
| 2026-05-05 01:05 | 52.99054 | 158.94837 | 16896 ft | 384 kts | 74° |
| 2026-05-05 01:05 | 53.00125 | 158.98914 | 17482 ft | 388 kts | 74° |
| 2026-05-05 01:05 | 53.01207 | 159.03046 | 18043 ft | 392 kts | 74° |
| 2026-05-05 01:06 | 53.02300 | 159.07224 | 18543 ft | 396 kts | 74° |
| 2026-05-05 01:06 | 53.03397 | 159.11433 | 19090 ft | 399 kts | 73° |
| 2026-05-05 01:06 | 53.04505 | 159.15686 | 19629 ft | 402 kts | 73° |
| 2026-05-05 01:06 | 53.05622 | 159.19965 | 20155 ft | 405 kts | 73° |
| 2026-05-05 01:07 | 53.06746 | 159.24276 | 20677 ft | 408 kts | 73° |
| 2026-05-05 01:07 | 53.07874 | 159.28625 | 21176 ft | 411 kts | 73° |
| 2026-05-05 01:07 | 53.09011 | 159.33012 | 21654 ft | 414 kts | 73° |
| 2026-05-05 01:07 | 53.10154 | 159.37432 | 22139 ft | 418 kts | 73° |
| 2026-05-05 01:08 | 53.11304 | 159.41891 | 22605 ft | 421 kts | 73° |
| 2026-05-05 01:08 | 53.12458 | 159.46381 | 23068 ft | 424 kts | 73° |
| 2026-05-05 01:08 | 53.13617 | 159.50909 | 23460 ft | 427 kts | 73° |
| 2026-05-05 01:08 | 53.14801 | 159.55539 | 23809 ft | 431 kts | 73° |
| 2026-05-05 01:09 | 53.15981 | 159.60154 | 24135 ft | 435 kts | 73° |
| 2026-05-05 01:09 | 53.17170 | 159.64811 | 24456 ft | 439 kts | 73° |
| 2026-05-05 01:09 | 53.18366 | 159.69509 | 24757 ft | 443 kts | 73° |
| 2026-05-05 01:09 | 53.19572 | 159.74250 | 25091 ft | 446 kts | 73° |
| 2026-05-05 01:10 | 53.20791 | 159.79041 | 25412 ft | 450 kts | 73° |
| 2026-05-05 01:10 | 53.22017 | 159.83880 | 25730 ft | 455 kts | 73° |
| 2026-05-05 01:10 | 53.23246 | 159.88762 | 26060 ft | 458 kts | 74° |
| 2026-05-05 01:10 | 53.24483 | 159.93691 | 26357 ft | 462 kts | 74° |
| 2026-05-05 01:11 | 53.25574 | 159.98721 | 26633 ft | 459 kts | 81° |
| 2026-05-05 01:11 | 53.26227 | 160.03910 | 26922 ft | 454 kts | 90° |
| 2026-05-05 01:11 | 53.26514 | 160.09146 | 27204 ft | 454 kts | 93° |
| 2026-05-05 01:11 | 53.26771 | 160.14429 | 27485 ft | 458 kts | 93° |
| 2026-05-05 01:12 | 53.27033 | 160.19748 | 27765 ft | 461 kts | 93° |
| 2026-05-05 01:12 | 53.27299 | 160.25103 | 28040 ft | 464 kts | 93° |
| 2026-05-05 01:12 | 53.27476 | 160.28678 | 28223 ft | 466 kts | 93° |
| 2026-05-05 01:12 | 53.27741 | 160.34093 | 28494 ft | 469 kts | 93° |
| 2026-05-05 01:13 | 53.28008 | 160.39547 | 28755 ft | 473 kts | 93° |
| 2026-05-05 01:13 | 53.28273 | 160.45035 | 29011 ft | 475 kts | 94° |
| 2026-05-05 01:13 | 53.28532 | 160.50548 | 29382 ft | 476 kts | 94° |
| 2026-05-05 01:13 | 53.28788 | 160.56052 | 29759 ft | 476 kts | 94° |
| 2026-05-05 01:14 | 53.29044 | 160.61575 | 30065 ft | 477 kts | 94° |
| 2026-05-05 01:14 | 53.29303 | 160.67175 | 30352 ft | 478 kts | 94° |
| 2026-05-05 01:14 | 53.29555 | 160.72732 | 30634 ft | 480 kts | 94° |
| 2026-05-05 01:14 | 53.29805 | 160.78302 | 30900 ft | 481 kts | 94° |
| 2026-05-05 01:15 | 53.30051 | 160.83892 | 31178 ft | 483 kts | 94° |
| 2026-05-05 01:15 | 53.30295 | 160.89501 | 31460 ft | 484 kts | 94° |
| 2026-05-05 01:15 | 53.30538 | 160.95116 | 31751 ft | 486 kts | 94° |
| 2026-05-05 01:15 | 53.30780 | 161.00764 | 32038 ft | 487 kts | 94° |
| 2026-05-05 01:16 | 53.31025 | 161.06425 | 32318 ft | 489 kts | 94° |
| 2026-05-05 01:16 | 53.31268 | 161.12102 | 32602 ft | 490 kts | 94° |
| 2026-05-05 01:16 | 53.31507 | 161.17791 | 32889 ft | 492 kts | 94° |
| 2026-05-05 01:16 | 53.31743 | 161.23505 | 33167 ft | 493 kts | 94° |
| 2026-05-05 01:17 | 53.31974 | 161.29237 | 33449 ft | 495 kts | 94° |
| 2026-05-05 01:17 | 53.32200 | 161.34992 | 33733 ft | 496 kts | 94° |
| 2026-05-05 01:17 | 53.32427 | 161.40756 | 33975 ft | 498 kts | 94° |
| 2026-05-05 01:17 | 53.32652 | 161.46544 | 34226 ft | 499 kts | 94° |
| 2026-05-05 01:18 | 53.32875 | 161.52347 | 34489 ft | 500 kts | 94° |
| 2026-05-05 01:18 | 53.33100 | 161.58156 | 34747 ft | 501 kts | 93° |
| 2026-05-05 01:18 | 53.33323 | 161.63981 | 34991 ft | 502 kts | 94° |
| 2026-05-05 01:18 | 53.33540 | 161.69802 | 35229 ft | 502 kts | 94° |
| 2026-05-05 01:19 | 53.33755 | 161.75644 | 35471 ft | 503 kts | 94° |
| 2026-05-05 01:19 | 53.33966 | 161.81492 | 35704 ft | 504 kts | 94° |
| 2026-05-05 01:19 | 53.34175 | 161.87346 | 35933 ft | 505 kts | 94° |
| 2026-05-05 01:19 | 53.34381 | 161.93209 | 36154 ft | 505 kts | 94° |
| 2026-05-05 01:20 | 53.34584 | 161.99078 | 36373 ft | 506 kts | 94° |
| 2026-05-05 01:20 | 53.34788 | 162.04965 | 36596 ft | 506 kts | 94° |
| 2026-05-05 01:20 | 53.34989 | 162.10856 | 36751 ft | 508 kts | 94° |
| 2026-05-05 01:20 | 53.35184 | 162.16770 | 36787 ft | 510 kts | 94° |
| 2026-05-05 01:21 | 53.35994 | 162.28647 | 36794 ft | 521 kts | 81° |
| 2026-05-05 01:21 | 53.38707 | 162.40079 | 36791 ft | 531 kts | 62° |
| 2026-05-05 01:22 | 53.42547 | 162.50675 | 36805 ft | 532 kts | 60° |
| 2026-05-05 01:22 | 53.46358 | 162.61314 | 36808 ft | 532 kts | 61° |
| 2026-05-05 01:23 | 53.50139 | 162.71995 | 36807 ft | 532 kts | 61° |
| 2026-05-05 01:23 | 53.53921 | 162.82700 | 36812 ft | 533 kts | 61° |
| 2026-05-05 01:24 | 53.57707 | 162.93430 | 36820 ft | 533 kts | 61° |
| 2026-05-05 01:24 | 53.61482 | 163.04186 | 36827 ft | 534 kts | 61° |
| 2026-05-05 01:25 | 53.65259 | 163.14971 | 36837 ft | 535 kts | 61° |
| 2026-05-05 01:25 | 53.69026 | 163.25784 | 36848 ft | 535 kts | 60° |
| 2026-05-05 01:26 | 53.72782 | 163.36638 | 36856 ft | 535 kts | 60° |
| 2026-05-05 01:26 | 53.76538 | 163.47509 | 36864 ft | 536 kts | 60° |
| 2026-05-05 01:27 | 53.80288 | 163.58399 | 36875 ft | 536 kts | 60° |
| 2026-05-05 01:27 | 53.84019 | 163.69319 | 36886 ft | 536 kts | 60° |
| 2026-05-05 01:28 | 53.87737 | 163.80251 | 36891 ft | 536 kts | 60° |
| 2026-05-05 01:28 | 53.91452 | 163.91211 | 36897 ft | 536 kts | 60° |
| 2026-05-05 01:29 | 53.95162 | 164.02181 | 36902 ft | 536 kts | 60° |
| 2026-05-05 01:29 | 53.98887 | 164.13238 | 36913 ft | 536 kts | 60° |
| 2026-05-05 01:30 | 54.02576 | 164.24261 | 36919 ft | 536 kts | 60° |
| 2026-05-05 01:30 | 54.06244 | 164.35282 | 36922 ft | 536 kts | 60° |
| 2026-05-05 01:31 | 54.09901 | 164.46340 | 36923 ft | 536 kts | 60° |
| 2026-05-05 01:31 | 54.13562 | 164.57412 | 36929 ft | 536 kts | 60° |
| 2026-05-05 01:32 | 54.17209 | 164.68511 | 36935 ft | 536 kts | 60° |
| 2026-05-05 01:32 | 54.20843 | 164.79622 | 36943 ft | 536 kts | 60° |
| 2026-05-05 01:33 | 54.24463 | 164.90769 | 36949 ft | 536 kts | 60° |
| 2026-05-05 01:33 | 54.28078 | 165.01923 | 36954 ft | 536 kts | 60° |
| 2026-05-05 01:34 | 54.31692 | 165.13112 | 36959 ft | 537 kts | 60° |
| 2026-05-05 01:34 | 54.35291 | 165.24311 | 36965 ft | 537 kts | 60° |
| 2026-05-05 01:35 | 54.38883 | 165.35543 | 36971 ft | 537 kts | 60° |
| 2026-05-05 01:35 | 54.42474 | 165.46806 | 36981 ft | 538 kts | 60° |
| 2026-05-05 01:36 | 54.46050 | 165.58091 | 36986 ft | 538 kts | 60° |
| 2026-05-05 01:36 | 54.49615 | 165.69404 | 36991 ft | 538 kts | 60° |
| 2026-05-05 01:37 | 54.53186 | 165.80827 | 36999 ft | 538 kts | 60° |
| 2026-05-05 01:37 | 54.56725 | 165.92190 | 37008 ft | 538 kts | 59° |
| 2026-05-05 01:38 | 54.60266 | 166.03559 | 37017 ft | 538 kts | 59° |
| 2026-05-05 01:38 | 54.63793 | 166.14935 | 37021 ft | 538 kts | 59° |
| 2026-05-05 01:39 | 54.67307 | 166.26340 | 37030 ft | 537 kts | 59° |
| 2026-05-05 01:39 | 54.70793 | 166.37742 | 37041 ft | 536 kts | 59° |
| 2026-05-05 01:40 | 54.74267 | 166.49143 | 37049 ft | 535 kts | 59° |
| 2026-05-05 01:40 | 54.77718 | 166.60518 | 37058 ft | 533 kts | 59° |
| 2026-05-05 01:41 | 54.81145 | 166.71887 | 37061 ft | 532 kts | 59° |
| 2026-05-05 01:41 | 54.84549 | 166.83249 | 37068 ft | 530 kts | 59° |
| 2026-05-05 01:42 | 54.87944 | 166.94592 | 37071 ft | 528 kts | 59° |
| 2026-05-05 01:42 | 54.91319 | 167.05906 | 37079 ft | 527 kts | 59° |
| 2026-05-05 01:43 | 54.94677 | 167.17197 | 37082 ft | 525 kts | 59° |
| 2026-05-05 01:43 | 54.98001 | 167.28493 | 37089 ft | 523 kts | 59° |
| 2026-05-05 01:44 | 55.01205 | 167.39852 | 37087 ft | 524 kts | 66° |
| 2026-05-05 01:44 | 55.02848 | 167.52246 | 37094 ft | 528 kts | 85° |
| 2026-05-05 01:45 | 55.02338 | 167.65030 | 37096 ft | 525 kts | 101° |
| 2026-05-05 01:45 | 55.01294 | 167.75440 | 37091 ft | 525 kts | 101° |
| 2026-05-05 01:46 | 55.00004 | 167.87952 | 37092 ft | 525 kts | 101° |
| 2026-05-05 01:46 | 54.98704 | 168.00454 | 37097 ft | 524 kts | 101° |
| 2026-05-05 01:47 | 54.97408 | 168.12944 | 37096 ft | 524 kts | 101° |
| 2026-05-05 01:47 | 54.96098 | 168.25428 | 37099 ft | 524 kts | 101° |
| 2026-05-05 01:48 | 54.94766 | 168.37893 | 37101 ft | 524 kts | 101° |
| 2026-05-05 01:48 | 54.93423 | 168.50348 | 37102 ft | 524 kts | 101° |
| 2026-05-05 01:49 | 54.92075 | 168.62793 | 37107 ft | 524 kts | 101° |
| 2026-05-05 01:49 | 54.90706 | 168.75332 | 37110 ft | 524 kts | 101° |
| 2026-05-05 01:50 | 54.89319 | 168.87776 | 37105 ft | 525 kts | 101° |
| 2026-05-05 01:50 | 54.87922 | 169.00226 | 37107 ft | 525 kts | 101° |
| 2026-05-05 01:51 | 54.86519 | 169.12680 | 37106 ft | 526 kts | 101° |
| 2026-05-05 01:51 | 54.85103 | 169.25134 | 37109 ft | 526 kts | 101° |
| 2026-05-05 01:52 | 54.83661 | 169.37595 | 37110 ft | 527 kts | 101° |
| 2026-05-05 01:52 | 54.82209 | 169.50061 | 37112 ft | 527 kts | 101° |
| 2026-05-05 01:53 | 54.80742 | 169.62534 | 37117 ft | 528 kts | 101° |
| 2026-05-05 01:53 | 54.79259 | 169.75001 | 37117 ft | 529 kts | 101° |
| 2026-05-05 01:54 | 54.77773 | 169.87484 | 37122 ft | 529 kts | 101° |
| 2026-05-05 01:54 | 54.76273 | 169.99969 | 37125 ft | 530 kts | 101° |
| 2026-05-05 01:55 | 54.75318 | 170.12559 | 37135 ft | 526 kts | 87° |
| 2026-05-05 01:55 | 54.75946 | 170.25109 | 37132 ft | 523 kts | 79° |
| 2026-05-05 01:56 | 54.76748 | 170.37638 | 37138 ft | 524 kts | 80° |
| 2026-05-05 01:56 | 54.77518 | 170.50263 | 37145 ft | 524 kts | 80° |
| 2026-05-05 01:57 | 54.78270 | 170.62813 | 37152 ft | 523 kts | 80° |
| 2026-05-05 01:57 | 54.79016 | 170.75355 | 37157 ft | 523 kts | 80° |
| 2026-05-05 01:58 | 54.79758 | 170.87882 | 37165 ft | 523 kts | 81° |
| 2026-05-05 01:58 | 54.80480 | 171.00412 | 37170 ft | 522 kts | 81° |
| 2026-05-05 01:59 | 54.81180 | 171.12955 | 37177 ft | 522 kts | 81° |
| 2026-05-05 01:59 | 54.81866 | 171.25468 | 37180 ft | 521 kts | 81° |
| 2026-05-05 02:00 | 54.82543 | 171.37976 | 37188 ft | 520 kts | 81° |
| 2026-05-05 02:00 | 54.83216 | 171.50457 | 37190 ft | 519 kts | 81° |
| 2026-05-05 02:01 | 54.83868 | 171.62928 | 37189 ft | 519 kts | 81° |
| 2026-05-05 02:01 | 54.84501 | 171.75373 | 37198 ft | 518 kts | 82° |
| 2026-05-05 02:02 | 54.85121 | 171.87800 | 37206 ft | 516 kts | 82° |
| 2026-05-05 02:02 | 54.85730 | 172.00208 | 37204 ft | 516 kts | 82° |
| 2026-05-05 02:03 | 54.86327 | 172.12598 | 37210 ft | 515 kts | 82° |
| 2026-05-05 02:03 | 54.86911 | 172.24974 | 37212 ft | 514 kts | 82° |
| 2026-05-05 02:04 | 54.87486 | 172.37398 | 37212 ft | 512 kts | 82° |
| 2026-05-05 02:04 | 54.88040 | 172.49727 | 37223 ft | 512 kts | 82° |
| 2026-05-05 02:05 | 54.88584 | 172.62034 | 37222 ft | 511 kts | 83° |
| 2026-05-05 02:05 | 54.89107 | 172.74312 | 37217 ft | 509 kts | 83° |
| 2026-05-05 02:06 | 54.89615 | 172.86571 | 37220 ft | 508 kts | 83° |
| 2026-05-05 02:06 | 54.90116 | 172.98813 | 37223 ft | 507 kts | 83° |
| 2026-05-05 02:07 | 54.90610 | 173.11032 | 37229 ft | 506 kts | 83° |
| 2026-05-05 02:07 | 54.91085 | 173.23228 | 37233 ft | 505 kts | 83° |
| 2026-05-05 02:08 | 54.91541 | 173.35409 | 37236 ft | 505 kts | 83° |
| 2026-05-05 02:08 | 54.91989 | 173.47581 | 37243 ft | 504 kts | 83° |
| 2026-05-05 02:09 | 54.92423 | 173.59728 | 37247 ft | 503 kts | 83° |
| 2026-05-05 02:09 | 54.92851 | 173.71863 | 37250 ft | 502 kts | 84° |
| 2026-05-05 02:10 | 54.93266 | 173.83970 | 37251 ft | 501 kts | 84° |
| 2026-05-05 02:10 | 54.93663 | 173.96063 | 37249 ft | 500 kts | 84° |
| 2026-05-05 02:11 | 54.94047 | 174.08224 | 37251 ft | 500 kts | 84° |
| 2026-05-05 02:11 | 54.94414 | 174.20207 | 37253 ft | 499 kts | 84° |
| 2026-05-05 02:12 | 54.94954 | 174.38352 | 37251 ft | 498 kts | 84° |
| 2026-05-05 02:13 | 54.95291 | 174.50392 | 37256 ft | 498 kts | 84° |
| 2026-05-05 02:13 | 54.95619 | 174.62437 | 37263 ft | 498 kts | 84° |
| 2026-05-05 02:14 | 54.95937 | 174.74470 | 37266 ft | 498 kts | 84° |
| 2026-05-05 02:14 | 54.96246 | 174.86494 | 37261 ft | 497 kts | 84° |
| 2026-05-05 02:15 | 54.96542 | 174.98515 | 37275 ft | 497 kts | 85° |
| 2026-05-05 02:15 | 54.96817 | 175.10541 | 37275 ft | 497 kts | 85° |
| 2026-05-05 02:16 | 54.97091 | 175.22541 | 37278 ft | 496 kts | 85° |
| 2026-05-05 02:16 | 54.97348 | 175.34520 | 37279 ft | 495 kts | 85° |
| 2026-05-05 02:17 | 54.97585 | 175.46502 | 37282 ft | 495 kts | 85° |
| 2026-05-05 02:17 | 54.97815 | 175.58464 | 37282 ft | 494 kts | 85° |
| 2026-05-05 02:18 | 54.98040 | 175.70425 | 37284 ft | 494 kts | 85° |
| 2026-05-05 02:18 | 54.98216 | 175.80432 | 37285 ft | 494 kts | 85° |
| 2026-05-05 02:19 | 54.98442 | 175.94312 | 37287 ft | 493 kts | 85° |
| 2026-05-05 02:19 | 54.98603 | 176.04302 | 37289 ft | 493 kts | 85° |
| 2026-05-05 02:20 | 54.98783 | 176.16225 | 37290 ft | 492 kts | 86° |
| 2026-05-05 02:20 | 54.98940 | 176.28131 | 37291 ft | 492 kts | 86° |
| 2026-05-05 02:21 | 54.99084 | 176.40026 | 37295 ft | 491 kts | 86° |
| 2026-05-05 02:21 | 54.99224 | 176.51919 | 37296 ft | 491 kts | 86° |
| 2026-05-05 02:22 | 54.99363 | 176.63781 | 37302 ft | 490 kts | 86° |
| 2026-05-05 02:22 | 54.99481 | 176.75649 | 37297 ft | 489 kts | 86° |
| 2026-05-05 02:23 | 54.99584 | 176.87475 | 37301 ft | 488 kts | 86° |
| 2026-05-05 02:23 | 54.99670 | 176.99288 | 37300 ft | 487 kts | 86° |
| 2026-05-05 02:24 | 54.99752 | 177.11085 | 37303 ft | 487 kts | 86° |
| 2026-05-05 02:24 | 54.99827 | 177.22875 | 37301 ft | 486 kts | 86° |
| 2026-05-05 02:25 | 54.99886 | 177.34729 | 37305 ft | 486 kts | 86° |
| 2026-05-05 02:25 | 54.99927 | 177.46503 | 37304 ft | 486 kts | 86° |
| 2026-05-05 02:26 | 54.99965 | 177.58260 | 37308 ft | 485 kts | 87° |
| 2026-05-05 02:26 | 54.99992 | 177.70011 | 37309 ft | 485 kts | 87° |
| 2026-05-05 02:27 | 55.00011 | 177.81752 | 37313 ft | 484 kts | 87° |
| 2026-05-05 02:27 | 55.00007 | 177.93476 | 37314 ft | 484 kts | 87° |
| 2026-05-05 02:28 | 55.00050 | 178.05187 | 37312 ft | 483 kts | 85° |
| 2026-05-05 02:28 | 55.00415 | 178.16843 | 37314 ft | 481 kts | 83° |
| 2026-05-05 02:29 | 55.00884 | 178.28462 | 37311 ft | 481 kts | 83° |
| 2026-05-05 02:29 | 55.01286 | 178.40089 | 37311 ft | 481 kts | 84° |
| 2026-05-05 02:30 | 55.01610 | 178.51718 | 37314 ft | 480 kts | 84° |
| 2026-05-05 02:30 | 55.01918 | 178.63336 | 37313 ft | 480 kts | 84° |
| 2026-05-05 02:31 | 55.02232 | 178.74950 | 37317 ft | 479 kts | 84° |
| 2026-05-05 02:31 | 55.02532 | 178.86555 | 37315 ft | 479 kts | 84° |
| 2026-05-05 02:32 | 55.02831 | 178.98226 | 37313 ft | 479 kts | 84° |
| 2026-05-05 02:32 | 55.03119 | 179.09814 | 37314 ft | 478 kts | 84° |
| 2026-05-05 02:33 | 55.03386 | 179.21396 | 37311 ft | 478 kts | 84° |
| 2026-05-05 02:33 | 55.03637 | 179.32984 | 37309 ft | 478 kts | 84° |
| 2026-05-05 02:34 | 55.03884 | 179.44550 | 37314 ft | 478 kts | 84° |
| 2026-05-05 02:34 | 55.04125 | 179.56117 | 37311 ft | 478 kts | 84° |
| 2026-05-05 02:35 | 55.04349 | 179.67702 | 37314 ft | 477 kts | 84° |
| 2026-05-05 02:35 | 55.04564 | 179.79263 | 37315 ft | 477 kts | 84° |
| 2026-05-05 02:36 | 55.04770 | 179.90831 | 37315 ft | 477 kts | 84° |
| 2026-05-05 02:36 | 55.04966 | -179.97615 | 37312 ft | 477 kts | 84° |
| 2026-05-05 02:37 | 55.05149 | -179.86045 | 37321 ft | 477 kts | 84° |
| 2026-05-05 02:37 | 55.05322 | -179.74505 | 37311 ft | 476 kts | 85° |
| 2026-05-05 02:38 | 55.05479 | -179.62955 | 37307 ft | 476 kts | 85° |
| 2026-05-05 02:38 | 55.05625 | -179.51408 | 37308 ft | 476 kts | 85° |
| 2026-05-05 02:39 | 55.05766 | -179.39880 | 37307 ft | 476 kts | 85° |
| 2026-05-05 02:39 | 55.05895 | -179.28255 | 37310 ft | 476 kts | 85° |
| 2026-05-05 02:40 | 55.06007 | -179.16725 | 37310 ft | 476 kts | 85° |
| 2026-05-05 02:40 | 55.06105 | -179.05185 | 37311 ft | 475 kts | 85° |
| 2026-05-05 02:41 | 55.06203 | -178.93670 | 37310 ft | 475 kts | 85° |
| 2026-05-05 02:41 | 55.06285 | -178.82156 | 37309 ft | 475 kts | 85° |
| 2026-05-05 02:42 | 55.06356 | -178.70623 | 37309 ft | 475 kts | 85° |
| 2026-05-05 02:42 | 55.06421 | -178.59117 | 37304 ft | 474 kts | 85° |
| 2026-05-05 02:43 | 55.06472 | -178.47608 | 37305 ft | 474 kts | 85° |
| 2026-05-05 02:43 | 55.06509 | -178.36095 | 37305 ft | 474 kts | 86° |
| 2026-05-05 02:44 | 55.06538 | -178.24604 | 37303 ft | 474 kts | 86° |
| 2026-05-05 02:44 | 55.06555 | -178.13099 | 37302 ft | 474 kts | 86° |
| 2026-05-05 02:45 | 55.06563 | -178.01605 | 37303 ft | 474 kts | 86° |
| 2026-05-05 02:45 | 55.06556 | -177.90123 | 37302 ft | 474 kts | 86° |
| 2026-05-05 02:46 | 55.06549 | -177.78626 | 37301 ft | 474 kts | 86° |
| 2026-05-05 02:46 | 55.06526 | -177.67134 | 37297 ft | 473 kts | 86° |
| 2026-05-05 02:47 | 55.06486 | -177.55650 | 37296 ft | 474 kts | 86° |
| 2026-05-05 02:47 | 55.06433 | -177.44094 | 37294 ft | 473 kts | 86° |
| 2026-05-05 02:48 | 55.06373 | -177.32605 | 37295 ft | 473 kts | 86° |
| 2026-05-05 02:48 | 55.06306 | -177.21122 | 37291 ft | 473 kts | 87° |
| 2026-05-05 02:49 | 55.06226 | -177.09639 | 37292 ft | 473 kts | 87° |
| 2026-05-05 02:49 | 55.06142 | -176.98160 | 37289 ft | 473 kts | 87° |
| 2026-05-05 02:50 | 55.06044 | -176.86685 | 37285 ft | 473 kts | 87° |
| 2026-05-05 02:50 | 55.05928 | -176.75208 | 37285 ft | 473 kts | 87° |
| 2026-05-05 02:51 | 55.05801 | -176.63738 | 37284 ft | 473 kts | 87° |
| 2026-05-05 02:51 | 55.05694 | -176.54213 | 37283 ft | 473 kts | 87° |
| 2026-05-05 02:52 | 55.05550 | -176.42752 | 37285 ft | 473 kts | 88° |
| 2026-05-05 02:52 | 55.05403 | -176.31286 | 37284 ft | 473 kts | 88° |
| 2026-05-05 02:53 | 55.05237 | -176.19759 | 37279 ft | 473 kts | 88° |
| 2026-05-05 02:53 | 55.05063 | -176.08303 | 37279 ft | 472 kts | 88° |
| 2026-05-05 02:54 | 55.04876 | -175.96847 | 37273 ft | 472 kts | 88° |
| 2026-05-05 02:54 | 55.04672 | -175.85400 | 37274 ft | 472 kts | 88° |
| 2026-05-05 02:55 | 55.04461 | -175.73961 | 37272 ft | 472 kts | 88° |
| 2026-05-05 02:55 | 55.04252 | -175.62519 | 37270 ft | 472 kts | 88° |
| 2026-05-05 02:56 | 55.04029 | -175.51090 | 37263 ft | 472 kts | 88° |
| 2026-05-05 02:56 | 55.03785 | -175.39650 | 37267 ft | 472 kts | 89° |
| 2026-05-05 02:57 | 55.03536 | -175.28222 | 37264 ft | 472 kts | 89° |
| 2026-05-05 02:57 | 55.03276 | -175.16803 | 37265 ft | 472 kts | 89° |
| 2026-05-05 02:58 | 55.03002 | -175.05387 | 37261 ft | 471 kts | 89° |
| 2026-05-05 02:58 | 55.02720 | -174.93965 | 37261 ft | 471 kts | 89° |
| 2026-05-05 02:59 | 55.02440 | -174.82557 | 37259 ft | 471 kts | 89° |
| 2026-05-05 02:59 | 55.02133 | -174.71147 | 37255 ft | 471 kts | 89° |
| 2026-05-05 03:00 | 55.01816 | -174.59755 | 37255 ft | 471 kts | 89° |
| 2026-05-05 03:00 | 55.01494 | -174.48361 | 37251 ft | 471 kts | 89° |
| 2026-05-05 03:01 | 55.01155 | -174.36903 | 37239 ft | 471 kts | 89° |
| 2026-05-05 03:01 | 55.00809 | -174.25513 | 37240 ft | 470 kts | 89° |
| 2026-05-05 03:02 | 55.00460 | -174.14140 | 37246 ft | 470 kts | 89° |
| 2026-05-05 03:02 | 55.00085 | -174.02761 | 37244 ft | 470 kts | 90° |
| 2026-05-05 03:03 | 54.99510 | -173.91398 | 37236 ft | 472 kts | 93° |
| 2026-05-05 03:03 | 54.98666 | -173.80071 | 37235 ft | 472 kts | 94° |
| 2026-05-05 03:04 | 54.97760 | -173.68752 | 37229 ft | 472 kts | 94° |
| 2026-05-05 03:04 | 54.96909 | -173.57425 | 37230 ft | 471 kts | 94° |
| 2026-05-05 03:05 | 54.96097 | -173.46115 | 37226 ft | 471 kts | 94° |
| 2026-05-05 03:05 | 54.95264 | -173.34796 | 37227 ft | 471 kts | 94° |
| 2026-05-05 03:06 | 54.94401 | -173.23504 | 37222 ft | 471 kts | 94° |
| 2026-05-05 03:06 | 54.93524 | -173.12215 | 37207 ft | 471 kts | 94° |
| 2026-05-05 03:07 | 54.92645 | -173.00919 | 37210 ft | 471 kts | 94° |
| 2026-05-05 03:07 | 54.91764 | -172.89647 | 37210 ft | 471 kts | 95° |
| 2026-05-05 03:08 | 54.90858 | -172.78377 | 37211 ft | 471 kts | 95° |
| 2026-05-05 03:08 | 54.89943 | -172.67109 | 37208 ft | 471 kts | 95° |
| 2026-05-05 03:09 | 54.89015 | -172.55783 | 37204 ft | 471 kts | 95° |
| 2026-05-05 03:09 | 54.88084 | -172.44528 | 37203 ft | 470 kts | 95° |
| 2026-05-05 03:10 | 54.87145 | -172.33298 | 37196 ft | 470 kts | 95° |
| 2026-05-05 03:10 | 54.86188 | -172.22053 | 37194 ft | 470 kts | 95° |
| 2026-05-05 03:11 | 54.85222 | -172.10827 | 37192 ft | 471 kts | 95° |
| 2026-05-05 03:11 | 54.84250 | -171.99608 | 37187 ft | 470 kts | 95° |
| 2026-05-05 03:12 | 54.83276 | -171.88391 | 37188 ft | 470 kts | 95° |
| 2026-05-05 03:12 | 54.82294 | -171.77188 | 37188 ft | 470 kts | 96° |
| 2026-05-05 03:13 | 54.81287 | -171.65987 | 37176 ft | 470 kts | 96° |
| 2026-05-05 03:13 | 54.80273 | -171.54794 | 37177 ft | 470 kts | 96° |
| 2026-05-05 03:14 | 54.79245 | -171.43610 | 37177 ft | 470 kts | 96° |
| 2026-05-05 03:14 | 54.78215 | -171.32431 | 37174 ft | 470 kts | 96° |
| 2026-05-05 03:15 | 54.77167 | -171.21262 | 37168 ft | 470 kts | 96° |
| 2026-05-05 03:15 | 54.76111 | -171.10096 | 37168 ft | 470 kts | 96° |
| 2026-05-05 03:16 | 54.75043 | -170.98919 | 37169 ft | 470 kts | 96° |
| 2026-05-05 03:16 | 54.73957 | -170.87695 | 37162 ft | 470 kts | 96° |
| 2026-05-05 03:17 | 54.72878 | -170.76544 | 37160 ft | 470 kts | 96° |
| 2026-05-05 03:17 | 54.71792 | -170.65401 | 37154 ft | 470 kts | 97° |
| 2026-05-05 03:18 | 54.70680 | -170.54255 | 37156 ft | 470 kts | 97° |
| 2026-05-05 03:18 | 54.69563 | -170.43122 | 37148 ft | 470 kts | 97° |
| 2026-05-05 03:19 | 54.67876 | -170.26417 | 37152 ft | 470 kts | 97° |
| 2026-05-05 03:19 | 54.66735 | -170.15283 | 37145 ft | 470 kts | 97° |
| 2026-05-05 03:20 | 54.65581 | -170.04163 | 37142 ft | 471 kts | 97° |
| 2026-05-05 03:20 | 54.64411 | -169.93043 | 37137 ft | 471 kts | 97° |
| 2026-05-05 03:21 | 54.63245 | -169.81935 | 37132 ft | 470 kts | 97° |
| 2026-05-05 03:21 | 54.62069 | -169.70826 | 37129 ft | 471 kts | 97° |
| 2026-05-05 03:22 | 54.60867 | -169.59722 | 37123 ft | 471 kts | 98° |
| 2026-05-05 03:22 | 54.59659 | -169.48625 | 37121 ft | 471 kts | 97° |
| 2026-05-05 03:23 | 54.58438 | -169.37467 | 37110 ft | 471 kts | 98° |
| 2026-05-05 03:23 | 54.57422 | -169.28249 | 37110 ft | 471 kts | 98° |
| 2026-05-05 03:24 | 54.56194 | -169.17149 | 37099 ft | 472 kts | 98° |
| 2026-05-05 03:24 | 54.54950 | -169.06046 | 37102 ft | 472 kts | 98° |
| 2026-05-05 03:25 | 54.53694 | -168.94954 | 37101 ft | 472 kts | 98° |
| 2026-05-05 03:25 | 54.52421 | -168.83860 | 37089 ft | 472 kts | 98° |
| 2026-05-05 03:26 | 54.51782 | -168.78319 | 36831 ft | 471 kts | 98° |
| 2026-05-05 03:26 | 54.51145 | -168.72797 | 36107 ft | 473 kts | 98° |
| 2026-05-05 03:26 | 54.50500 | -168.67215 | 35199 ft | 478 kts | 98° |
| 2026-05-05 03:26 | 54.49850 | -168.61595 | 34407 ft | 478 kts | 98° |
| 2026-05-05 03:27 | 54.49201 | -168.56030 | 33233 ft | 474 kts | 98° |
| 2026-05-05 03:27 | 54.48548 | -168.50482 | 32060 ft | 470 kts | 98° |
| 2026-05-05 03:27 | 54.47901 | -168.45019 | 30965 ft | 464 kts | 98° |
| 2026-05-05 03:27 | 54.47259 | -168.39618 | 29757 ft | 459 kts | 98° |
| 2026-05-05 03:28 | 54.46622 | -168.34269 | 28478 ft | 452 kts | 98° |
| 2026-05-05 03:28 | 54.45991 | -168.28993 | 27226 ft | 452 kts | 98° |
| 2026-05-05 03:28 | 54.45359 | -168.23695 | 26352 ft | 450 kts | 98° |
| 2026-05-05 03:28 | 54.44734 | -168.18490 | 25627 ft | 442 kts | 98° |
| 2026-05-05 03:29 | 54.44111 | -168.13340 | 24843 ft | 438 kts | 98° |
| 2026-05-05 03:29 | 54.43483 | -168.08181 | 24052 ft | 434 kts | 98° |
| 2026-05-05 03:29 | 54.42869 | -168.03136 | 23244 ft | 430 kts | 98° |
| 2026-05-05 03:29 | 54.42260 | -167.98139 | 22503 ft | 424 kts | 98° |
| 2026-05-05 03:30 | 54.41654 | -167.93219 | 21805 ft | 418 kts | 98° |
| 2026-05-05 03:30 | 54.41055 | -167.88374 | 21137 ft | 413 kts | 98° |
| 2026-05-05 03:30 | 54.40464 | -167.83586 | 20490 ft | 408 kts | 98° |
| 2026-05-05 03:30 | 54.39879 | -167.78843 | 19848 ft | 404 kts | 98° |
| 2026-05-05 03:31 | 54.39298 | -167.74141 | 19235 ft | 401 kts | 98° |
| 2026-05-05 03:31 | 54.38722 | -167.69489 | 18660 ft | 398 kts | 98° |
| 2026-05-05 03:31 | 54.38146 | -167.64861 | 18040 ft | 396 kts | 98° |
| 2026-05-05 03:31 | 54.37570 | -167.60270 | 17484 ft | 391 kts | 98° |
| 2026-05-05 03:32 | 54.36999 | -167.55738 | 16961 ft | 387 kts | 98° |
| 2026-05-05 03:32 | 54.36430 | -167.51260 | 16440 ft | 382 kts | 98° |
| 2026-05-05 03:32 | 54.35866 | -167.46833 | 15904 ft | 378 kts | 98° |
| 2026-05-05 03:32 | 54.35307 | -167.42457 | 15384 ft | 374 kts | 98° |
| 2026-05-05 03:33 | 54.34753 | -167.38128 | 14964 ft | 375 kts | 98° |
| 2026-05-05 03:33 | 54.34190 | -167.33685 | 15014 ft | 385 kts | 98° |
| 2026-05-05 03:33 | 54.33616 | -167.29189 | 15015 ft | 387 kts | 98° |
| 2026-05-05 03:33 | 54.33034 | -167.24679 | 15015 ft | 388 kts | 98° |
| 2026-05-05 03:34 | 54.32450 | -167.20168 | 15012 ft | 388 kts | 98° |
| 2026-05-05 03:34 | 54.31864 | -167.15651 | 15011 ft | 388 kts | 98° |
| 2026-05-05 03:34 | 54.31278 | -167.11140 | 15011 ft | 387 kts | 98° |
| 2026-05-05 03:34 | 54.30703 | -167.06750 | 15002 ft | 369 kts | 98° |
| 2026-05-05 03:35 | 54.30152 | -167.02580 | 15008 ft | 350 kts | 98° |
| 2026-05-05 03:35 | 54.29625 | -166.98615 | 15007 ft | 333 kts | 98° |
| 2026-05-05 03:35 | 54.29127 | -166.94844 | 15011 ft | 317 kts | 98° |
| 2026-05-05 03:35 | 54.28647 | -166.91211 | 15013 ft | 311 kts | 98° |
| 2026-05-05 03:36 | 54.28173 | -166.87614 | 15015 ft | 309 kts | 98° |
| 2026-05-05 03:36 | 54.27702 | -166.84033 | 15011 ft | 309 kts | 98° |
| 2026-05-05 03:36 | 54.27229 | -166.80447 | 15013 ft | 309 kts | 98° |
| 2026-05-05 03:36 | 54.26749 | -166.76821 | 15012 ft | 309 kts | 98° |
| 2026-05-05 03:37 | 54.26272 | -166.73239 | 15011 ft | 309 kts | 98° |
| 2026-05-05 03:37 | 54.25794 | -166.69663 | 15013 ft | 309 kts | 99° |
| 2026-05-05 03:37 | 54.25312 | -166.66078 | 15013 ft | 309 kts | 98° |
| 2026-05-05 03:37 | 54.24830 | -166.62499 | 15013 ft | 309 kts | 98° |
| 2026-05-05 03:38 | 54.24348 | -166.58923 | 15011 ft | 309 kts | 98° |
| 2026-05-05 03:38 | 54.23728 | -166.55396 | 15009 ft | 313 kts | 110° |
| 2026-05-05 03:38 | 54.22575 | -166.52235 | 15007 ft | 320 kts | 126° |
| 2026-05-05 03:38 | 54.21347 | -166.49717 | 15008 ft | 320 kts | 126° |
| 2026-05-05 03:39 | 54.19915 | -166.46806 | 15005 ft | 320 kts | 127° |
| 2026-05-05 03:39 | 54.18499 | -166.43936 | 15003 ft | 310 kts | 126° |
| 2026-05-05 03:39 | 54.17292 | -166.41023 | 14995 ft | 291 kts | 111° |
| 2026-05-05 03:39 | 54.16748 | -166.37851 | 15004 ft | 270 kts | 91° |
| 2026-05-05 03:40 | 54.16824 | -166.34782 | 14991 ft | 250 kts | 72° |
| 2026-05-05 03:40 | 54.17391 | -166.32097 | 14993 ft | 234 kts | 56° |
| 2026-05-05 03:40 | 54.18336 | -166.29898 | 14991 ft | 228 kts | 41° |
| 2026-05-05 03:40 | 54.19573 | -166.28261 | 14992 ft | 224 kts | 26° |
| 2026-05-05 03:41 | 54.20982 | -166.27147 | 14989 ft | 223 kts | 21° |
| 2026-05-05 03:41 | 54.22405 | -166.26084 | 14988 ft | 223 kts | 21° |
| 2026-05-05 03:41 | 54.23827 | -166.25026 | 14990 ft | 223 kts | 20° |
| 2026-05-05 03:41 | 54.25314 | -166.24312 | 14987 ft | 222 kts | 7° |
| 2026-05-05 03:42 | 54.26851 | -166.24278 | 14989 ft | 222 kts | 353° |
| 2026-05-05 03:42 | 54.28343 | -166.25001 | 14990 ft | 225 kts | 338° |
| 2026-05-05 03:42 | 54.29667 | -166.26445 | 14991 ft | 229 kts | 322° |
| 2026-05-05 03:42 | 54.30711 | -166.28523 | 14992 ft | 234 kts | 306° |
| 2026-05-05 03:43 | 54.31376 | -166.31102 | 14994 ft | 241 kts | 290° |
| 2026-05-05 03:43 | 54.31566 | -166.33979 | 14996 ft | 248 kts | 272° |
| 2026-05-05 03:43 | 54.31219 | -166.36905 | 14997 ft | 255 kts | 253° |
| 2026-05-05 03:43 | 54.30330 | -166.39568 | 15002 ft | 262 kts | 233° |
| 2026-05-05 03:44 | 54.28938 | -166.41661 | 15000 ft | 267 kts | 212° |
| 2026-05-05 03:44 | 54.27215 | -166.42846 | 15004 ft | 269 kts | 191° |
| 2026-05-05 03:44 | 54.25358 | -166.42980 | 15003 ft | 268 kts | 169° |
| 2026-05-05 03:44 | 54.23592 | -166.42066 | 15007 ft | 264 kts | 149° |
| 2026-05-05 03:45 | 54.22116 | -166.40275 | 15004 ft | 260 kts | 133° |
| 2026-05-05 03:45 | 54.20816 | -166.38131 | 15003 ft | 259 kts | 129° |
| 2026-05-05 03:45 | 54.19576 | -166.35905 | 15002 ft | 258 kts | 128° |
| 2026-05-05 03:45 | 54.18235 | -166.33839 | 14994 ft | 263 kts | 143° |
| 2026-05-05 03:46 | 54.16570 | -166.32543 | 14996 ft | 267 kts | 165° |
| 2026-05-05 03:46 | 54.14721 | -166.32292 | 14999 ft | 268 kts | 187° |
| 2026-05-05 03:46 | 54.12936 | -166.33119 | 14996 ft | 267 kts | 208° |
| 2026-05-05 03:46 | 54.11541 | -166.35082 | 14998 ft | 259 kts | 239° |
| 2026-05-05 03:47 | 54.10812 | -166.37812 | 15003 ft | 250 kts | 264° |
| 2026-05-05 03:47 | 54.10789 | -166.40706 | 15001 ft | 241 kts | 288° |
| 2026-05-05 03:47 | 54.11414 | -166.43276 | 15004 ft | 233 kts | 310° |
| 2026-05-05 03:47 | 54.12541 | -166.45175 | 15006 ft | 226 kts | 332° |
| 2026-05-05 03:48 | 54.13972 | -166.46190 | 15004 ft | 222 kts | 352° |
| 2026-05-05 03:48 | 54.15506 | -166.46210 | 15005 ft | 221 kts | 11° |
| 2026-05-05 03:48 | 54.16973 | -166.45407 | 15005 ft | 223 kts | 21° |
| 2026-05-05 03:48 | 54.18402 | -166.44378 | 15006 ft | 223 kts | 22° |
| 2026-05-05 03:49 | 54.19816 | -166.43297 | 15005 ft | 223 kts | 22° |
| 2026-05-05 03:49 | 54.21228 | -166.42206 | 15007 ft | 223 kts | 22° |
| 2026-05-05 03:49 | 54.22644 | -166.41123 | 15007 ft | 223 kts | 22° |
| 2026-05-05 03:49 | 54.24060 | -166.40050 | 15003 ft | 223 kts | 22° |
| 2026-05-05 03:50 | 54.25476 | -166.38977 | 15001 ft | 223 kts | 23° |
| 2026-05-05 03:50 | 54.26762 | -166.37500 | 14999 ft | 226 kts | 41° |
| 2026-05-05 03:50 | 54.27679 | -166.35303 | 14998 ft | 231 kts | 62° |
| 2026-05-05 03:50 | 54.28032 | -166.32585 | 14998 ft | 240 kts | 85° |
| 2026-05-05 03:51 | 54.27682 | -166.29718 | 14995 ft | 250 kts | 110° |
| 2026-05-05 03:51 | 54.26635 | -166.27295 | 14996 ft | 259 kts | 136° |
| 2026-05-05 03:51 | 54.25039 | -166.25822 | 14990 ft | 266 kts | 164° |
| 2026-05-05 03:51 | 54.23200 | -166.25696 | 14994 ft | 267 kts | 193° |
| 2026-05-05 03:52 | 54.21450 | -166.26735 | 14995 ft | 267 kts | 205° |
| 2026-05-05 03:52 | 54.19741 | -166.27987 | 14996 ft | 267 kts | 206° |
| 2026-05-05 03:52 | 54.18048 | -166.29274 | 14998 ft | 266 kts | 206° |
| 2026-05-05 03:52 | 54.16356 | -166.30568 | 14995 ft | 266 kts | 206° |
| 2026-05-05 03:53 | 54.14665 | -166.31859 | 14998 ft | 266 kts | 205° |
| 2026-05-05 03:53 | 54.12981 | -166.33154 | 14996 ft | 265 kts | 209° |
| 2026-05-05 03:53 | 54.11576 | -166.35103 | 15001 ft | 259 kts | 238° |
| 2026-05-05 03:53 | 54.10823 | -166.37799 | 15005 ft | 250 kts | 264° |
| 2026-05-05 03:54 | 54.10798 | -166.40676 | 15005 ft | 240 kts | 289° |
| 2026-05-05 03:54 | 54.11433 | -166.43223 | 15006 ft | 231 kts | 311° |
| 2026-05-05 03:54 | 54.12563 | -166.45098 | 15006 ft | 225 kts | 332° |
| 2026-05-05 03:54 | 54.13994 | -166.46076 | 15006 ft | 221 kts | 352° |
| 2026-05-05 03:55 | 54.15517 | -166.46094 | 15008 ft | 220 kts | 12° |
| 2026-05-05 03:55 | 54.16976 | -166.45289 | 15010 ft | 221 kts | 20° |
| 2026-05-05 03:55 | 54.18394 | -166.44269 | 15009 ft | 222 kts | 22° |
| 2026-05-05 03:55 | 54.19802 | -166.43191 | 15011 ft | 221 kts | 23° |
| 2026-05-05 03:56 | 54.21205 | -166.42111 | 15009 ft | 221 kts | 22° |
| 2026-05-05 03:56 | 54.22613 | -166.41032 | 15010 ft | 221 kts | 22° |
| 2026-05-05 03:56 | 54.24020 | -166.39963 | 15008 ft | 221 kts | 22° |
| 2026-05-05 03:56 | 54.25427 | -166.38893 | 15006 ft | 221 kts | 23° |
| 2026-05-05 03:57 | 54.26709 | -166.37436 | 15003 ft | 224 kts | 41° |
| 2026-05-05 03:57 | 54.27378 | -166.36031 | 15001 ft | 228 kts | 55° |
| 2026-05-05 03:57 | 54.27973 | -166.32548 | 15002 ft | 239 kts | 85° |
| 2026-05-05 03:57 | 54.27830 | -166.30623 | 15000 ft | 245 kts | 101° |
| 2026-05-05 03:58 | 54.27028 | -166.28009 | 14997 ft | 255 kts | 127° |
| 2026-05-05 03:58 | 54.25599 | -166.26162 | 14995 ft | 263 kts | 155° |
| 2026-05-05 03:58 | 54.23806 | -166.25565 | 14994 ft | 266 kts | 183° |
| 2026-05-05 03:58 | 54.22019 | -166.26309 | 14930 ft | 265 kts | 204° |
| 2026-05-05 03:59 | 54.20324 | -166.27530 | 14652 ft | 265 kts | 206° |
| 2026-05-05 03:59 | 54.18638 | -166.28813 | 14331 ft | 267 kts | 206° |
| 2026-05-05 03:59 | 54.16921 | -166.30134 | 13915 ft | 275 kts | 206° |
| 2026-05-05 03:59 | 54.15157 | -166.31487 | 13425 ft | 282 kts | 206° |
| 2026-05-05 04:00 | 54.13333 | -166.32873 | 12876 ft | 291 kts | 206° |
| 2026-05-05 04:00 | 54.11650 | -166.34790 | 12327 ft | 293 kts | 230° |
| 2026-05-05 04:00 | 54.10578 | -166.37683 | 11796 ft | 289 kts | 256° |
| 2026-05-05 04:00 | 54.10294 | -166.41012 | 11274 ft | 283 kts | 279° |
| 2026-05-05 04:01 | 54.10806 | -166.44190 | 10767 ft | 277 kts | 302° |
| 2026-05-05 04:01 | 54.11987 | -166.46719 | 10258 ft | 272 kts | 324° |
| 2026-05-05 04:01 | 54.13621 | -166.48261 | 9729 ft | 266 kts | 345° |
| 2026-05-05 04:01 | 54.15415 | -166.48614 | 9183 ft | 257 kts | 5° |
| 2026-05-05 04:02 | 54.17132 | -166.47894 | 8645 ft | 252 kts | 18° |
| 2026-05-05 04:02 | 54.18741 | -166.46797 | 8114 ft | 246 kts | 21° |
| 2026-05-05 04:02 | 54.20290 | -166.45624 | 7594 ft | 241 kts | 21° |
| 2026-05-05 04:02 | 54.21796 | -166.44453 | 7075 ft | 235 kts | 21° |
| 2026-05-05 04:03 | 54.23270 | -166.43310 | 6573 ft | 230 kts | 21° |
| 2026-05-05 04:03 | 54.24716 | -166.42204 | 6045 ft | 225 kts | 20° |
| 2026-05-05 04:03 | 54.26131 | -166.41126 | 5537 ft | 221 kts | 22° |
| 2026-05-05 04:03 | 54.27424 | -166.39679 | 5110 ft | 225 kts | 37° |
| 2026-05-05 04:04 | 54.28422 | -166.37581 | 4680 ft | 232 kts | 55° |
| 2026-05-05 04:04 | 54.28967 | -166.34918 | 4267 ft | 239 kts | 75° |
| 2026-05-05 04:04 | 54.28938 | -166.32072 | 3863 ft | 247 kts | 96° |
| 2026-05-05 04:04 | 54.28280 | -166.29280 | 3462 ft | 255 kts | 118° |
| 2026-05-05 04:05 | 54.27054 | -166.27046 | 3079 ft | 261 kts | 141° |
| 2026-05-05 04:05 | 54.25434 | -166.25755 | 2911 ft | 255 kts | 165° |
| 2026-05-05 04:05 | 54.23710 | -166.25536 | 2771 ft | 244 kts | 188° |
| 2026-05-05 04:05 | 54.22117 | -166.26255 | 2642 ft | 232 kts | 204° |
| 2026-05-05 04:06 | 54.20652 | -166.27269 | 2508 ft | 225 kts | 207° |
| 2026-05-05 04:06 | 54.19231 | -166.28343 | 2372 ft | 222 kts | 208° |
| 2026-05-05 04:06 | 54.17823 | -166.29425 | 2237 ft | 222 kts | 208° |
| 2026-05-05 04:06 | 54.16421 | -166.30502 | 2112 ft | 221 kts | 208° |
| 2026-05-05 04:07 | 54.15032 | -166.31560 | 2006 ft | 215 kts | 208° |
| 2026-05-05 04:07 | 54.13693 | -166.32568 | 1988 ft | 207 kts | 208° |
| 2026-05-05 04:07 | 54.12440 | -166.33700 | 1999 ft | 202 kts | 217° |
| 2026-05-05 04:07 | 54.11181 | -166.34790 | 1998 ft | 204 kts | 209° |
| 2026-05-05 04:08 | 54.09893 | -166.35790 | 2000 ft | 203 kts | 209° |
| 2026-05-05 04:08 | 54.08608 | -166.36788 | 1999 ft | 203 kts | 208° |
| 2026-05-05 04:08 | 54.07323 | -166.37788 | 2000 ft | 203 kts | 209° |
| 2026-05-05 04:08 | 54.06041 | -166.38789 | 2002 ft | 203 kts | 209° |
| 2026-05-05 04:09 | 54.04762 | -166.39782 | 2016 ft | 197 kts | 208° |
| 2026-05-05 04:09 | 54.03582 | -166.40689 | 1996 ft | 177 kts | 210° |
| 2026-05-05 04:09 | 54.02491 | -166.41553 | 1759 ft | 170 kts | 211° |
| 2026-05-05 04:09 | 54.01460 | -166.42374 | 1482 ft | 158 kts | 211° |
| 2026-05-05 04:10 | 54.00479 | -166.43104 | 1298 ft | 152 kts | 207° |
| 2026-05-05 04:10 | 53.99490 | -166.43692 | 1183 ft | 149 kts | 205° |
| 2026-05-05 04:10 | 53.98521 | -166.44292 | 1102 ft | 148 kts | 207° |
| 2026-05-05 04:10 | 53.97559 | -166.44903 | 1101 ft | 147 kts | 207° |
| 2026-05-05 04:11 | 53.96583 | -166.45457 | 1094 ft | 149 kts | 201° |
| 2026-05-05 04:11 | 53.95575 | -166.45895 | 998 ft | 150 kts | 199° |
| 2026-05-05 04:11 | 53.94555 | -166.46252 | 860 ft | 149 kts | 196° |
| 2026-05-05 04:11 | 53.93539 | -166.46566 | 699 ft | 148 kts | 195° |
| 2026-05-05 04:12 | 53.92526 | -166.46878 | 539 ft | 148 kts | 195° |
| 2026-05-05 04:12 | 53.91544 | -166.47298 | 430 ft | 143 kts | 204° |
| 2026-05-05 04:12 | 53.90627 | -166.47982 | 400 ft | 141 kts | 218° |
| 2026-05-05 04:12 | 53.89846 | -166.48949 | 355 ft | 138 kts | 229° |
| 2026-05-05 04:13 | 53.89166 | -166.50072 | 289 ft | 135 kts | 239° |
| 2026-05-05 04:13 | 53.88693 | -166.51406 | 286 ft | 130 kts | 279° |
| 2026-05-05 04:13 | 53.88703 | -166.52970 | 451 ft | 140 kts | 306° |
| 2026-05-05 04:13 | 53.89117 | -166.54394 | 819 ft | 122 kts | 306° |
| 2026-05-05 04:14 | 53.89547 | -166.55630 | 903 ft | 124 kts | 292° |
| 2026-05-05 04:14 | 53.89662 | -166.57040 | 1018 ft | 125 kts | 258° |
| 2026-05-05 04:14 | 53.89318 | -166.58471 | 896 ft | 132 kts | 252° |
| 2026-05-05 04:14 | 53.89044 | -166.59867 | 854 ft | 126 kts | 286° |
| 2026-05-05 04:15 | 53.89268 | -166.61306 | 1069 ft | 135 kts | 321° |
| 2026-05-05 04:15 | 53.89916 | -166.62412 | 1307 ft | 133 kts | 345° |
| 2026-05-05 04:15 | 53.90773 | -166.62862 | 1372 ft | 127 kts | 10° |
| 2026-05-05 04:15 | 53.91621 | -166.62551 | 1315 ft | 126 kts | 37° |
| 2026-05-05 04:16 | 53.92213 | -166.61459 | 1199 ft | 135 kts | 70° |
| 2026-05-05 04:16 | 53.92349 | -166.59836 | 1112 ft | 144 kts | 85° |
| 2026-05-05 04:16 | 53.92341 | -166.59695 | 1104 ft | 144 kts | 83° |
| 2026-05-05 04:17 | 53.92334 | -166.59571 | 1113 ft | 144 kts | 84° |
| 2026-05-05 04:17 | 53.92062 | -166.57930 | 1042 ft | 147 kts | 102° |
| 2026-05-05 04:17 | 53.91791 | -166.56138 | 1315 ft | 158 kts | 78° |
| 2026-05-05 04:17 | 53.91978 | -166.54377 | 1782 ft | 149 kts | 49° |
| 2026-05-05 04:18 | 53.92443 | -166.52897 | 1894 ft | 138 kts | 52° |
| 2026-05-05 04:18 | 53.92864 | -166.51449 | 1880 ft | 137 kts | 56° |
| 2026-05-05 04:18 | 53.93106 | -166.49845 | 1681 ft | 142 kts | 72° |
| 2026-05-05 04:18 | 53.93199 | -166.48146 | 1429 ft | 147 kts | 77° |
| 2026-05-05 04:19 | 53.93012 | -166.46408 | 1227 ft | 153 kts | 112° |
| 2026-05-05 04:19 | 53.92337 | -166.44949 | 1098 ft | 167 kts | 156° |
| 2026-05-05 04:19 | 53.91245 | -166.44423 | 1015 ft | 175 kts | 206° |
| 2026-05-05 04:19 | 53.90319 | -166.45369 | 1156 ft | 149 kts | 267° |
| 2026-05-05 04:20 | 53.90100 | -166.47075 | 1066 ft | 145 kts | 264° |
| 2026-05-05 04:20 | 53.89773 | -166.48632 | 911 ft | 141 kts | 233° |
| 2026-05-05 04:20 | 53.89214 | -166.49941 | 636 ft | 133 kts | 250° |
| 2026-05-05 04:20 | 53.88966 | -166.51577 | 434 ft | 145 kts | 283° |
| 2026-05-05 04:21 | 53.89165 | -166.53179 | 222 ft | 141 kts | 317° |
| 2026-05-05 04:21 | 53.89803 | -166.54352 | 31 ft | 124 kts | 322° |
| 2026-05-05 04:21 | 53.90442 | -166.55288 | 228 ft | 123 kts | 329° |
| 2026-05-05 04:21 | 53.91269 | -166.55540 | 472 ft | 130 kts | 18° |
| 2026-05-05 04:22 | 53.92026 | -166.54619 | 491 ft | 144 kts | 44° |
| 2026-05-05 04:22 | 53.92606 | -166.53171 | 404 ft | 155 kts | 52° |
| 2026-05-05 04:22 | 53.93017 | -166.51554 | 405 ft | 146 kts | 83° |
| 2026-05-05 04:22 | 53.92869 | -166.49817 | 419 ft | 159 kts | 127° |
| 2026-05-05 04:23 | 53.92047 | -166.48564 | 410 ft | 162 kts | 175° |
| 2026-05-05 04:23 | 53.90943 | -166.48343 | 314 ft | 162 kts | 209° |
| 2026-05-05 04:23 | 53.89941 | -166.49100 | 284 ft | 164 kts | 218° |
| 2026-05-05 04:23 | 53.89109 | -166.50366 | 293 ft | 157 kts | 256° |
| 2026-05-05 04:24 | 53.88891 | -166.52035 | 254 ft | 142 kts | 300° |
| 2026-05-05 04:24 | 53.89283 | -166.53452 | 96 ft | 129 kts | 324° |
| 2026-05-05 04:24 | 53.89829 | -166.54402 | 23 ft | 91 kts | 316° |
| 2026-05-05 04:25 | 53.90285 | -166.55125 | 27 ft | 14 kts | 324° |
| 2026-05-05 04:25 | 53.90256 | -166.55110 | 25 ft | 10 kts | 131° |
| 2026-05-05 04:25 | 53.90174 | -166.54957 | 26 ft | 25 kts | 134° |
| 2026-05-05 04:25 | 53.90025 | -166.54717 | 21 ft | 32 kts | 136° |
| 2026-05-05 04:26 | 53.89862 | -166.54450 | 22 ft | 33 kts | 135° |
| 2026-05-05 04:26 | 53.89724 | -166.54219 | 24 ft | 28 kts | 135° |
| 2026-05-05 04:26 | 53.89595 | -166.54012 | 21 ft | 10 kts | 152° |
| 2026-05-05 04:26 | 53.89562 | -166.54084 | 22 ft | 8 kts | 233° |
| 2026-05-05 04:27 | 53.89522 | -166.54088 | 22 ft | 7 kts | 179° |
| 2026-05-05 04:27 | 53.89505 | -166.54106 | 21 ft | 0 kts | 241° |